PAMR/MRI METAR and TAF weather

Enter ICAO airport designator
Station Type Date Time Source
PAMR METAR 2022/06/28 09:53 UTC NOAA

PAMR 280953Z 13003KT 10SM SCT250 13/08 A3013 RMK AO2 SLP203 T01280083


Station Type Date Time Source
PAMR Decoded METAR 2022/06/28 09:53 UTC NOAA

ANCHORAGE MERRILL FIELD, AK, United States (PAMR) 61-13N 149-51W
Jun 28, 2022 - 05:53 AM EDT / 2022.06.28 0953 UTC
Wind: from the SE (130 degrees) at 3 MPH (3 KT):0
Visibility: 10 mile(s):0
Sky conditions: partly cloudy
Temperature: 55.0 F (12.8 C)
Dew Point: 46.9 F (8.3 C)
Relative Humidity: 74%
Pressure (altimeter): 30.13 in. Hg (1020 hPa)
ob: PAMR 280953Z 13003KT 10SM SCT250 13/08 A3013 RMK AO2 SLP203 T01280083
cycle: 10

Station Type Date Time Source
PAMR TAF UTC NOAA

Error!

Example: see airport list